sensor_id;sensor_type;location;lat;lon;timestamp;pressure;altitude;pressure_sealevel;temperature;humidity
41102;BME280;26845;50.190;19.178;2022-11-20T00:01:25;98436.92;;;-5.14;73.27
41102;BME280;26845;50.190;19.178;2022-11-20T00:03:54;98430.07;;;-5.16;73.48
41102;BME280;26845;50.190;19.178;2022-11-20T00:06:22;98426.75;;;-5.18;73.52
41102;BME280;26845;50.190;19.178;2022-11-20T00:08:50;98415.53;;;-5.22;73.58
41102;BME280;26845;50.190;19.178;2022-11-20T00:11:20;98429.86;;;-5.15;73.67
41102;BME280;26845;50.190;19.178;2022-11-20T00:13:50;98427.44;;;-5.14;73.56
41102;BME280;26845;50.190;19.178;2022-11-20T00:16:21;98423.59;;;-5.15;73.39
41102;BME280;26845;50.190;19.178;2022-11-20T00:18:49;98420.30;;;-5.17;73.30
41102;BME280;26845;50.190;19.178;2022-11-20T00:21:22;98412.09;;;-5.20;73.31
41102;BME280;26845;50.190;19.178;2022-11-20T00:23:51;98404.70;;;-5.22;73.56
41102;BME280;26845;50.190;19.178;2022-11-20T00:26:21;98402.28;;;-5.21;73.71
41102;BME280;26845;50.190;19.178;2022-11-20T00:29:00;98408.84;;;-5.20;73.78
41102;BME280;26845;50.190;19.178;2022-11-20T00:31:28;98403.64;;;-5.21;73.63
41102;BME280;26845;50.190;19.178;2022-11-20T00:33:56;98401.37;;;-5.24;73.62
41102;BME280;26845;50.190;19.178;2022-11-20T00:36:25;98403.34;;;-5.22;73.60
41102;BME280;26845;50.190;19.178;2022-11-20T00:38:55;98399.52;;;-5.24;73.54
41102;BME280;26845;50.190;19.178;2022-11-20T00:41:26;98403.59;;;-5.24;73.49
41102;BME280;26845;50.190;19.178;2022-11-20T00:43:55;98407.86;;;-5.25;73.34
41102;BME280;26845;50.190;19.178;2022-11-20T00:46:24;98401.45;;;-5.31;73.20
41102;BME280;26845;50.190;19.178;2022-11-20T00:48:52;98402.66;;;-5.36;73.10
41102;BME280;26845;50.190;19.178;2022-11-20T00:51:24;98404.70;;;-5.40;73.10
41102;BME280;26845;50.190;19.178;2022-11-20T00:53:57;98400.67;;;-5.47;73.06
41102;BME280;26845;50.190;19.178;2022-11-20T00:56:24;98406.55;;;-5.50;73.10
41102;BME280;26845;50.190;19.178;2022-11-20T00:58:50;98408.96;;;-5.51;73.24
41102;BME280;26845;50.190;19.178;2022-11-20T01:01:23;98404.16;;;-5.49;73.37
41102;BME280;26845;50.190;19.178;2022-11-20T01:03:52;98405.19;;;-5.50;73.35
41102;BME280;26845;50.190;19.178;2022-11-20T01:06:22;98405.72;;;-5.51;73.31
41102;BME280;26845;50.190;19.178;2022-11-20T01:09:02;98398.25;;;-5.55;73.39
41102;BME280;26845;50.190;19.178;2022-11-20T01:11:40;98393.16;;;-5.54;73.47
41102;BME280;26845;50.190;19.178;2022-11-20T01:14:13;98384.80;;;-5.53;73.45
41102;BME280;26845;50.190;19.178;2022-11-20T01:16:48;98388.03;;;-5.53;73.58
41102;BME280;26845;50.190;19.178;2022-11-20T01:19:18;98383.97;;;-5.53;73.56
41102;BME280;26845;50.190;19.178;2022-11-20T01:21:49;98378.55;;;-5.53;73.50
41102;BME280;26845;50.190;19.178;2022-11-20T01:24:20;98377.44;;;-5.55;73.42
41102;BME280;26845;50.190;19.178;2022-11-20T01:26:49;98372.44;;;-5.58;73.44
41102;BME280;26845;50.190;19.178;2022-11-20T01:29:19;98378.09;;;-5.59;73.37
41102;BME280;26845;50.190;19.178;2022-11-20T01:31:48;98373.42;;;-5.61;73.27
41102;BME280;26845;50.190;19.178;2022-11-20T01:34:17;98365.75;;;-5.65;73.29
41102;BME280;26845;50.190;19.178;2022-11-20T01:36:45;98373.95;;;-5.62;73.33
41102;BME280;26845;50.190;19.178;2022-11-20T01:39:19;98365.83;;;-5.62;73.23
41102;BME280;26845;50.190;19.178;2022-11-20T01:41:46;98362.22;;;-5.65;73.08
41102;BME280;26845;50.190;19.178;2022-11-20T01:50:11;98360.16;;;-5.79;73.19
41102;BME280;26845;50.190;19.178;2022-11-20T01:52:45;98357.16;;;-5.80;73.24
41102;BME280;26845;50.190;19.178;2022-11-20T01:55:19;98358.72;;;-5.81;73.41
41102;BME280;26845;50.190;19.178;2022-11-20T01:57:48;98354.74;;;-5.79;73.57
41102;BME280;26845;50.190;19.178;2022-11-20T02:00:19;98353.63;;;-5.80;73.47
41102;BME280;26845;50.190;19.178;2022-11-20T02:02:53;98347.28;;;-5.83;73.19
41102;BME280;26845;50.190;19.178;2022-11-20T02:08:21;98352.28;;;-5.80;73.37
41102;BME280;26845;50.190;19.178;2022-11-20T02:10:48;98356.55;;;-5.82;73.21
41102;BME280;26845;50.190;19.178;2022-11-20T02:13:15;98354.58;;;-5.84;73.33
41102;BME280;26845;50.190;19.178;2022-11-20T02:16:01;98367.16;;;-5.80;73.40
41102;BME280;26845;50.190;19.178;2022-11-20T02:18:30;98373.93;;;-5.80;73.29
41102;BME280;26845;50.190;19.178;2022-11-20T02:20:59;98373.52;;;-5.84;73.22
41102;BME280;26845;50.190;19.178;2022-11-20T02:24:12;98370.08;;;-5.82;73.28
41102;BME280;26845;50.190;19.178;2022-11-20T02:26:44;98380.91;;;-5.82;73.18
41102;BME280;26845;50.190;19.178;2022-11-20T02:29:46;98383.68;;;-5.89;73.14
41102;BME280;26845;50.190;19.178;2022-11-20T02:32:29;98391.87;;;-5.95;73.16
41102;BME280;26845;50.190;19.178;2022-11-20T02:34:48;98387.95;;;-5.99;73.25
41102;BME280;26845;50.190;19.178;2022-11-20T02:37:15;98389.31;;;-5.99;73.44
41102;BME280;26845;50.190;19.178;2022-11-20T02:39:45;98387.22;;;-5.97;73.48
41102;BME280;26845;50.190;19.178;2022-11-20T02:42:12;98393.75;;;-5.96;73.44
41102;BME280;26845;50.190;19.178;2022-11-20T02:44:39;98392.10;;;-5.97;73.20
41102;BME280;26845;50.190;19.178;2022-11-20T02:47:08;98392.75;;;-6.01;73.26
41102;BME280;26845;50.190;19.178;2022-11-20T02:49:34;98400.25;;;-6.03;73.29
41102;BME280;26845;50.190;19.178;2022-11-20T02:52:01;98389.43;;;-6.03;73.27
41102;BME280;26845;50.190;19.178;2022-11-20T02:54:28;98392.08;;;-6.06;73.10
41102;BME280;26845;50.190;19.178;2022-11-20T02:56:58;98388.75;;;-6.08;73.07
41102;BME280;26845;50.190;19.178;2022-11-20T02:59:26;98389.48;;;-6.10;73.24
41102;BME280;26845;50.190;19.178;2022-11-20T03:01:55;98385.43;;;-6.10;73.24
41102;BME280;26845;50.190;19.178;2022-11-20T03:04:21;98384.61;;;-6.11;73.31
41102;BME280;26845;50.190;19.178;2022-11-20T03:06:48;98384.70;;;-6.08;73.25
41102;BME280;26845;50.190;19.178;2022-11-20T03:09:14;98387.02;;;-6.12;73.11
41102;BME280;26845;50.190;19.178;2022-11-20T03:11:44;98380.98;;;-6.14;73.13
41102;BME280;26845;50.190;19.178;2022-11-20T03:14:10;98383.08;;;-6.16;73.10
41102;BME280;26845;50.190;19.178;2022-11-20T03:16:37;98381.73;;;-6.16;73.29
41102;BME280;26845;50.190;19.178;2022-11-20T03:19:04;98377.37;;;-6.17;73.19
41102;BME280;26845;50.190;19.178;2022-11-20T03:21:32;98378.28;;;-6.14;73.25
41102;BME280;26845;50.190;19.178;2022-11-20T03:24:00;98374.76;;;-6.14;73.15
41102;BME280;26845;50.190;19.178;2022-11-20T03:26:28;98376.64;;;-6.15;73.31
41102;BME280;26845;50.190;19.178;2022-11-20T03:28:57;98369.93;;;-6.12;73.40
41102;BME280;26845;50.190;19.178;2022-11-20T03:31:28;98371.91;;;-6.10;73.45
41102;BME280;26845;50.190;19.178;2022-11-20T03:33:58;98379.81;;;-6.08;73.49
41102;BME280;26845;50.190;19.178;2022-11-20T03:36:26;98382.44;;;-6.11;73.31
41102;BME280;26845;50.190;19.178;2022-11-20T03:38:54;98382.34;;;-6.14;73.30
41102;BME280;26845;50.190;19.178;2022-11-20T03:41:28;98385.78;;;-6.16;73.31
41102;BME280;26845;50.190;19.178;2022-11-20T03:44:01;98384.05;;;-6.19;73.29
41102;BME280;26845;50.190;19.178;2022-11-20T03:46:29;98383.14;;;-6.22;73.24
41102;BME280;26845;50.190;19.178;2022-11-20T03:48:56;98380.96;;;-6.23;73.22
41102;BME280;26845;50.190;19.178;2022-11-20T03:51:25;98379.91;;;-6.22;73.27
41102;BME280;26845;50.190;19.178;2022-11-20T03:53:57;98379.81;;;-6.24;73.13
41102;BME280;26845;50.190;19.178;2022-11-20T03:56:29;98378.98;;;-6.25;73.14
41102;BME280;26845;50.190;19.178;2022-11-20T03:58:57;98380.98;;;-6.29;73.05
41102;BME280;26845;50.190;19.178;2022-11-20T04:01:30;98384.75;;;-6.30;73.04
41102;BME280;26845;50.190;19.178;2022-11-20T04:03:58;98382.58;;;-6.31;73.17
41102;BME280;26845;50.190;19.178;2022-11-20T04:06:27;98379.87;;;-6.31;73.09
41102;BME280;26845;50.190;19.178;2022-11-20T04:09:02;98373.64;;;-6.31;73.14
41102;BME280;26845;50.190;19.178;2022-11-20T04:11:32;98370.31;;;-6.34;73.09
41102;BME280;26845;50.190;19.178;2022-11-20T04:14:03;98369.49;;;-6.34;73.20
41102;BME280;26845;50.190;19.178;2022-11-20T04:16:33;98363.26;;;-6.35;73.29
41102;BME280;26845;50.190;19.178;2022-11-20T04:19:01;98370.02;;;-6.35;73.22
41102;BME280;26845;50.190;19.178;2022-11-20T04:21:30;98364.52;;;-6.37;73.20
41102;BME280;26845;50.190;19.178;2022-11-20T04:23:57;98357.67;;;-6.40;73.29
41102;BME280;26845;50.190;19.178;2022-11-20T04:26:26;98357.34;;;-6.41;73.35
41102;BME280;26845;50.190;19.178;2022-11-20T04:28:54;98353.00;;;-6.42;73.43
41102;BME280;26845;50.190;19.178;2022-11-20T04:31:25;98355.91;;;-6.43;73.34
41102;BME280;26845;50.190;19.178;2022-11-20T04:33:53;98348.77;;;-6.47;73.32
41102;BME280;26845;50.190;19.178;2022-11-20T04:36:23;98347.31;;;-6.49;73.33
41102;BME280;26845;50.190;19.178;2022-11-20T04:39:01;98344.41;;;-6.48;73.30
41102;BME280;26845;50.190;19.178;2022-11-20T04:41:26;98335.39;;;-6.51;73.02
41102;BME280;26845;50.190;19.178;2022-11-20T04:43:59;98339.73;;;-6.50;73.22
41102;BME280;26845;50.190;19.178;2022-11-20T04:46:31;98341.91;;;-6.49;73.28
41102;BME280;26845;50.190;19.178;2022-11-20T04:49:00;98337.56;;;-6.50;73.29
41102;BME280;26845;50.190;19.178;2022-11-20T04:51:27;98334.77;;;-6.53;73.37
41102;BME280;26845;50.190;19.178;2022-11-20T04:53:54;98334.23;;;-6.52;73.40
41102;BME280;26845;50.190;19.178;2022-11-20T04:56:23;98333.06;;;-6.47;73.45
41102;BME280;26845;50.190;19.178;2022-11-20T04:58:49;98331.00;;;-6.52;73.04
41102;BME280;26845;50.190;19.178;2022-11-20T05:01:19;98327.48;;;-6.52;73.12
41102;BME280;26845;50.190;19.178;2022-11-20T05:03:48;98329.89;;;-6.53;73.06
41102;BME280;26845;50.190;19.178;2022-11-20T05:06:17;98332.30;;;-6.54;73.05
41102;BME280;26845;50.190;19.178;2022-11-20T05:08:46;98323.77;;;-6.58;73.00
41102;BME280;26845;50.190;19.178;2022-11-20T05:11:17;98325.45;;;-6.57;73.11
41102;BME280;26845;50.190;19.178;2022-11-20T05:13:47;98318.63;;;-6.66;72.96
41102;BME280;26845;50.190;19.178;2022-11-20T05:16:22;98320.99;;;-6.76;72.92
41102;BME280;26845;50.190;19.178;2022-11-20T05:18:46;98315.11;;;-6.83;73.02
41102;BME280;26845;50.190;19.178;2022-11-20T05:21:14;98316.46;;;-6.83;73.14
41102;BME280;26845;50.190;19.178;2022-11-20T05:23:41;98313.87;;;-6.87;73.20
41102;BME280;26845;50.190;19.178;2022-11-20T05:26:17;98313.34;;;-6.86;73.28
41102;BME280;26845;50.190;19.178;2022-11-20T05:28:51;98307.64;;;-6.87;73.33
41102;BME280;26845;50.190;19.178;2022-11-20T05:31:21;98305.85;;;-6.84;73.48
41102;BME280;26845;50.190;19.178;2022-11-20T05:33:48;98305.12;;;-6.82;73.48
41102;BME280;26845;50.190;19.178;2022-11-20T05:36:16;98306.04;;;-6.79;73.57
41102;BME280;26845;50.190;19.178;2022-11-20T05:38:43;98309.03;;;-6.78;73.47
41102;BME280;26845;50.190;19.178;2022-11-20T05:41:16;98308.21;;;-6.79;73.46
41102;BME280;26845;50.190;19.178;2022-11-20T05:43:45;98311.53;;;-6.76;73.44
41102;BME280;26845;50.190;19.178;2022-11-20T05:46:14;98306.12;;;-6.76;73.46
41102;BME280;26845;50.190;19.178;2022-11-20T05:48:44;98307.25;;;-6.75;73.39
41102;BME280;26845;50.190;19.178;2022-11-20T05:51:14;98299.81;;;-6.80;73.34
41102;BME280;26845;50.190;19.178;2022-11-20T05:53:43;98296.28;;;-6.80;73.35
41102;BME280;26845;50.190;19.178;2022-11-20T05:56:13;98299.05;;;-6.77;73.30
41102;BME280;26845;50.190;19.178;2022-11-20T05:58:45;98305.80;;;-6.77;73.22
41102;BME280;26845;50.190;19.178;2022-11-20T06:01:19;98302.60;;;-6.77;73.31
41102;BME280;26845;50.190;19.178;2022-11-20T06:03:47;98307.09;;;-6.80;73.29
41102;BME280;26845;50.190;19.178;2022-11-20T06:06:18;98303.24;;;-6.82;73.27
41102;BME280;26845;50.190;19.178;2022-11-20T06:08:45;98307.78;;;-6.91;72.67
41102;BME280;26845;50.190;19.178;2022-11-20T06:11:13;98312.66;;;-7.36;71.88
41102;BME280;26845;50.190;19.178;2022-11-20T06:13:41;98317.00;;;-7.64;72.24
41102;BME280;26845;50.190;19.178;2022-11-20T06:16:09;98321.91;;;-7.70;72.48
41102;BME280;26845;50.190;19.178;2022-11-20T06:18:37;98319.83;;;-7.75;72.78
41102;BME280;26845;50.190;19.178;2022-11-20T06:21:09;98324.08;;;-7.70;73.06
41102;BME280;26845;50.190;19.178;2022-11-20T06:23:38;98315.23;;;-7.61;73.29
41102;BME280;26845;50.190;19.178;2022-11-20T06:26:10;98316.35;;;-7.53;73.34
41102;BME280;26845;50.190;19.178;2022-11-20T06:28:41;98317.66;;;-7.46;73.40
41102;BME280;26845;50.190;19.178;2022-11-20T06:31:11;98312.98;;;-7.41;73.42
41102;BME280;26845;50.190;19.178;2022-11-20T06:33:40;98319.11;;;-7.37;73.58
41102;BME280;26845;50.190;19.178;2022-11-20T06:36:09;98311.70;;;-7.32;73.54
41102;BME280;26845;50.190;19.178;2022-11-20T06:38:37;98316.48;;;-7.34;73.41
41102;BME280;26845;50.190;19.178;2022-11-20T06:41:06;98308.91;;;-7.35;73.74
41102;BME280;26845;50.190;19.178;2022-11-20T06:43:35;98305.34;;;-7.29;74.03
41102;BME280;26845;50.190;19.178;2022-11-20T06:46:01;98301.47;;;-7.17;74.44
41102;BME280;26845;50.190;19.178;2022-11-20T06:48:29;98292.07;;;-7.08;74.78
41102;BME280;26845;50.190;19.178;2022-11-20T06:50:57;98292.73;;;-6.96;75.05
41102;BME280;26845;50.190;19.178;2022-11-20T06:53:25;98296.30;;;-6.87;75.15
41102;BME280;26845;50.190;19.178;2022-11-20T06:55:52;98292.38;;;-6.75;75.30
41102;BME280;26845;50.190;19.178;2022-11-20T06:58:21;98284.02;;;-6.67;75.49
41102;BME280;26845;50.190;19.178;2022-11-20T07:00:48;98280.31;;;-6.57;75.79
41102;BME280;26845;50.190;19.178;2022-11-20T07:03:15;98285.45;;;-6.48;75.87
41102;BME280;26845;50.190;19.178;2022-11-20T07:05:41;98278.92;;;-6.41;75.97
41102;BME280;26845;50.190;19.178;2022-11-20T07:08:09;98283.23;;;-6.33;76.03
41102;BME280;26845;50.190;19.178;2022-11-20T07:10:35;98273.48;;;-6.34;75.91
41102;BME280;26845;50.190;19.178;2022-11-20T07:13:02;98271.86;;;-6.26;76.27
41102;BME280;26845;50.190;19.178;2022-11-20T07:15:29;98275.19;;;-6.15;76.53
41102;BME280;26845;50.190;19.178;2022-11-20T07:17:58;98280.73;;;-6.09;76.52
41102;BME280;26845;50.190;19.178;2022-11-20T07:20:26;98276.92;;;-6.02;76.70
41102;BME280;26845;50.190;19.178;2022-11-20T07:22:54;98271.67;;;-5.97;76.83
41102;BME280;26845;50.190;19.178;2022-11-20T07:25:22;98265.41;;;-5.88;77.05
41102;BME280;26845;50.190;19.178;2022-11-20T07:27:49;98266.69;;;-5.81;77.14
41102;BME280;26845;50.190;19.178;2022-11-20T07:30:17;98274.52;;;-5.73;77.10
41102;BME280;26845;50.190;19.178;2022-11-20T07:32:50;98273.41;;;-5.66;77.18
41102;BME280;26845;50.190;19.178;2022-11-20T07:35:19;98285.13;;;-5.53;77.28
41102;BME280;26845;50.190;19.178;2022-11-20T07:37:46;98280.77;;;-5.45;77.24
41102;BME280;26845;50.190;19.178;2022-11-20T07:40:15;98279.25;;;-5.41;77.15
41102;BME280;26845;50.190;19.178;2022-11-20T07:42:50;98277.38;;;-5.31;77.36
41102;BME280;26845;50.190;19.178;2022-11-20T07:45:19;98272.02;;;-5.20;77.32
41102;BME280;26845;50.190;19.178;2022-11-20T07:47:46;98284.36;;;-5.14;77.30
41102;BME280;26845;50.190;19.178;2022-11-20T07:50:14;98283.27;;;-5.04;77.44
41102;BME280;26845;50.190;19.178;2022-11-20T07:52:41;98282.73;;;-4.94;77.44
41102;BME280;26845;50.190;19.178;2022-11-20T07:55:09;98275.11;;;-4.86;77.41
41102;BME280;26845;50.190;19.178;2022-11-20T07:57:36;98280.78;;;-4.76;77.43
41102;BME280;26845;50.190;19.178;2022-11-20T08:00:05;98276.10;;;-4.68;77.45
41102;BME280;26845;50.190;19.178;2022-11-20T08:02:37;98283.23;;;-4.65;77.48
41102;BME280;26845;50.190;19.178;2022-11-20T08:05:06;98284.80;;;-4.57;77.65
41102;BME280;26845;50.190;19.178;2022-11-20T08:07:40;98292.36;;;-4.47;77.87
41102;BME280;26845;50.190;19.178;2022-11-20T08:10:10;98287.34;;;-4.32;78.05
41102;BME280;26845;50.190;19.178;2022-11-20T08:12:46;98287.42;;;-4.18;78.02
41102;BME280;26845;50.190;19.178;2022-11-20T08:15:34;98290.89;;;-4.08;78.00
41102;BME280;26845;50.190;19.178;2022-11-20T08:18:03;98290.14;;;-3.94;78.10
41102;BME280;26845;50.190;19.178;2022-11-20T08:20:32;98288.56;;;-3.81;78.08
41102;BME280;26845;50.190;19.178;2022-11-20T08:23:02;98286.66;;;-3.69;78.23
41102;BME280;26845;50.190;19.178;2022-11-20T08:25:32;98296.40;;;-3.58;78.20
41102;BME280;26845;50.190;19.178;2022-11-20T08:28:01;98283.70;;;-3.55;78.10
41102;BME280;26845;50.190;19.178;2022-11-20T08:30:33;98286.98;;;-3.53;77.99
41102;BME280;26845;50.190;19.178;2022-11-20T08:33:08;98284.80;;;-3.54;78.21
41102;BME280;26845;50.190;19.178;2022-11-20T08:35:35;98286.62;;;-3.45;78.51
41102;BME280;26845;50.190;19.178;2022-11-20T08:38:05;98298.73;;;-3.38;78.39
41102;BME280;26845;50.190;19.178;2022-11-20T08:40:32;98294.13;;;-3.38;78.49
41102;BME280;26845;50.190;19.178;2022-11-20T08:42:59;98293.52;;;-3.40;78.51
41102;BME280;26845;50.190;19.178;2022-11-20T08:45:27;98294.69;;;-3.36;78.91
41102;BME280;26845;50.190;19.178;2022-11-20T08:47:59;98291.97;;;-3.24;79.19
41102;BME280;26845;50.190;19.178;2022-11-20T08:50:30;98290.41;;;-3.20;79.08
41102;BME280;26845;50.190;19.178;2022-11-20T08:53:04;98287.52;;;-3.28;78.83
41102;BME280;26845;50.190;19.178;2022-11-20T08:55:31;98290.61;;;-3.24;79.21
41102;BME280;26845;50.190;19.178;2022-11-20T08:58:04;98286.59;;;-3.33;79.09
41102;BME280;26845;50.190;19.178;2022-11-20T09:00:31;98284.75;;;-3.30;79.39
41102;BME280;26845;50.190;19.178;2022-11-20T09:02:58;98278.75;;;-3.32;79.43
41102;BME280;26845;50.190;19.178;2022-11-20T09:05:27;98282.43;;;-3.38;79.46
41102;BME280;26845;50.190;19.178;2022-11-20T09:07:57;98278.92;;;-3.36;79.73
41102;BME280;26845;50.190;19.178;2022-11-20T09:10:25;98282.73;;;-3.23;80.27
41102;BME280;26845;50.190;19.178;2022-11-20T09:12:52;98278.67;;;-3.09;80.19
41102;BME280;26845;50.190;19.178;2022-11-20T09:15:21;98279.94;;;-3.00;80.18
41102;BME280;26845;50.190;19.178;2022-11-20T09:17:56;98271.50;;;-2.86;80.50
41102;BME280;26845;50.190;19.178;2022-11-20T09:20:25;98276.66;;;-2.73;80.55
41102;BME280;26845;50.190;19.178;2022-11-20T09:22:55;98274.20;;;-2.58;80.66
41102;BME280;26845;50.190;19.178;2022-11-20T09:25:23;98276.22;;;-2.51;80.49
41102;BME280;26845;50.190;19.178;2022-11-20T09:27:57;98272.33;;;-2.40;80.76
41102;BME280;26845;50.190;19.178;2022-11-20T09:30:25;98266.81;;;-2.29;80.88
41102;BME280;26845;50.190;19.178;2022-11-20T09:32:53;98265.32;;;-2.19;80.92
41102;BME280;26845;50.190;19.178;2022-11-20T09:35:20;98264.50;;;-2.03;81.19
41102;BME280;26845;50.190;19.178;2022-11-20T09:37:49;98262.08;;;-1.83;81.59
41102;BME280;26845;50.190;19.178;2022-11-20T09:40:25;98262.59;;;-1.66;81.40
41102;BME280;26845;50.190;19.178;2022-11-20T09:46:00;98265.20;;;-1.35;81.37
41102;BME280;26845;50.190;19.178;2022-11-20T09:51:53;98268.42;;;-1.19;80.93
41102;BME280;26845;50.190;19.178;2022-11-20T09:54:31;98271.66;;;-1.22;80.75
41102;BME280;26845;50.190;19.178;2022-11-20T09:57:05;98264.06;;;-1.17;81.04
41102;BME280;26845;50.190;19.178;2022-11-20T09:59:42;98262.28;;;-1.06;81.29
41102;BME280;26845;50.190;19.178;2022-11-20T10:05:00;98250.23;;;-0.86;81.38
41102;BME280;26845;50.190;19.178;2022-11-20T10:07:44;98248.20;;;-0.74;81.38
41102;BME280;26845;50.190;19.178;2022-11-20T10:11:03;98245.05;;;-0.60;81.47
41102;BME280;26845;50.190;19.178;2022-11-20T10:27:27;98232.00;;;-0.24;81.23
41102;BME280;26845;50.190;19.178;2022-11-20T10:30:16;98230.31;;;-0.30;80.99
41102;BME280;26845;50.190;19.178;2022-11-20T10:32:56;98226.22;;;-0.30;81.00
41102;BME280;26845;50.190;19.178;2022-11-20T10:35:35;98228.68;;;-0.31;81.23
41102;BME280;26845;50.190;19.178;2022-11-20T10:38:23;98222.94;;;-0.29;81.11
41102;BME280;26845;50.190;19.178;2022-11-20T10:40:54;98213.41;;;-0.27;81.37
41102;BME280;26845;50.190;19.178;2022-11-20T10:43:33;98212.68;;;-0.17;81.42
41102;BME280;26845;50.190;19.178;2022-11-20T10:46:03;98207.86;;;-0.02;81.43
41102;BME280;26845;50.190;19.178;2022-11-20T10:48:40;98206.03;;;0.09;81.34
41102;BME280;26845;50.190;19.178;2022-11-20T10:54:25;98200.81;;;0.07;80.66
41102;BME280;26845;50.190;19.178;2022-11-20T10:56:54;98188.80;;;0.11;80.92
41102;BME280;26845;50.190;19.178;2022-11-20T11:00:00;98191.62;;;0.24;82.62
41102;BME280;26845;50.190;19.178;2022-11-20T11:05:22;98186.59;;;0.55;81.17
41102;BME280;26845;50.190;19.178;2022-11-20T11:07:54;98182.22;;;0.54;80.95
41102;BME280;26845;50.190;19.178;2022-11-20T11:10:39;98175.94;;;0.59;80.71
41102;BME280;26845;50.190;19.178;2022-11-20T11:13:18;98179.24;;;0.63;80.99
41102;BME280;26845;50.190;19.178;2022-11-20T11:15:45;98179.25;;;0.71;81.14
41102;BME280;26845;50.190;19.178;2022-11-20T11:18:30;98179.02;;;0.78;80.72
41102;BME280;26845;50.190;19.178;2022-11-20T11:21:02;98171.91;;;0.74;80.82
41102;BME280;26845;50.190;19.178;2022-11-20T11:23:39;98170.83;;;0.80;80.65
41102;BME280;26845;50.190;19.178;2022-11-20T11:26:22;98167.53;;;0.78;80.44
41102;BME280;26845;50.190;19.178;2022-11-20T11:29:02;98167.78;;;0.77;80.31
41102;BME280;26845;50.190;19.178;2022-11-20T11:31:32;98172.19;;;0.78;80.41
41102;BME280;26845;50.190;19.178;2022-11-20T11:34:10;98174.64;;;0.79;80.24
41102;BME280;26845;50.190;19.178;2022-11-20T11:36:40;98171.92;;;0.84;80.29
41102;BME280;26845;50.190;19.178;2022-11-20T11:39:14;98173.30;;;0.87;80.20
41102;BME280;26845;50.190;19.178;2022-11-20T11:41:41;98178.52;;;0.96;80.39
41102;BME280;26845;50.190;19.178;2022-11-20T11:44:24;98176.35;;;1.01;80.16
41102;BME280;26845;50.190;19.178;2022-11-20T11:50:00;98170.38;;;1.14;80.07
41102;BME280;26845;50.190;19.178;2022-11-20T11:52:29;98172.83;;;1.18;80.12
41102;BME280;26845;50.190;19.178;2022-11-20T11:55:02;98176.95;;;1.23;80.26
41102;BME280;26845;50.190;19.178;2022-11-20T12:00:20;98162.14;;;1.19;79.01
41102;BME280;26845;50.190;19.178;2022-11-20T12:05:46;98156.11;;;1.07;79.16
41102;BME280;26845;50.190;19.178;2022-11-20T12:11:16;98142.71;;;1.16;79.45
41102;BME280;26845;50.190;19.178;2022-11-20T12:13:54;98142.45;;;1.27;79.62
41102;BME280;26845;50.190;19.178;2022-11-20T12:16:30;98141.10;;;1.40;79.79
41102;BME280;26845;50.190;19.178;2022-11-20T12:19:10;98144.64;;;1.53;79.47
41102;BME280;26845;50.190;19.178;2022-11-20T12:30:56;98129.03;;;1.33;79.15
41102;BME280;26845;50.190;19.178;2022-11-20T12:36:46;98118.59;;;1.82;79.58
41102;BME280;26845;50.190;19.178;2022-11-20T12:39:35;98120.77;;;2.00;79.32
41102;BME280;26845;50.190;19.178;2022-11-20T12:42:30;98114.41;;;2.17;78.29
41102;BME280;26845;50.190;19.178;2022-11-20T12:48:41;98096.59;;;2.15;77.70
41102;BME280;26845;50.190;19.178;2022-11-20T13:00:26;98067.08;;;3.35;78.32
41102;BME280;26845;50.190;19.178;2022-11-20T13:03:16;98066.27;;;3.64;77.11
41102;BME280;26845;50.190;19.178;2022-11-20T13:06:10;98066.72;;;3.76;77.09
41102;BME280;26845;50.190;19.178;2022-11-20T13:08:53;98067.54;;;4.00;76.78
41102;BME280;26845;50.190;19.178;2022-11-20T13:11:41;98069.21;;;4.23;76.94
41102;BME280;26845;50.190;19.178;2022-11-20T13:17:07;98054.35;;;4.45;76.58
41102;BME280;26845;50.190;19.178;2022-11-20T13:19:51;98056.55;;;4.67;76.23
41102;BME280;26845;50.190;19.178;2022-11-20T13:22:52;98052.78;;;4.80;76.21
41102;BME280;26845;50.190;19.178;2022-11-20T13:25:25;98052.61;;;4.92;76.08
41102;BME280;26845;50.190;19.178;2022-11-20T13:28:27;98056.61;;;5.00;75.66
41102;BME280;26845;50.190;19.178;2022-11-20T13:30:31;98058.97;;;4.90;74.80
41102;BME280;26845;50.190;19.178;2022-11-20T13:36:19;98054.20;;;4.58;74.70
41102;BME280;26845;50.190;19.178;2022-11-20T13:38:43;98056.27;;;4.66;74.95
41102;BME280;26845;50.190;19.178;2022-11-20T13:41:23;98053.77;;;4.70;75.04
41102;BME280;26845;50.190;19.178;2022-11-20T13:44:29;98050.13;;;4.72;74.65
41102;BME280;26845;50.190;19.178;2022-11-20T13:46:51;98042.90;;;4.79;74.61
41102;BME280;26845;50.190;19.178;2022-11-20T13:49:27;98034.18;;;4.71;74.63
41102;BME280;26845;50.190;19.178;2022-11-20T13:55:22;98025.05;;;4.36;74.33
41102;BME280;26845;50.190;19.178;2022-11-20T14:03:50;98023.25;;;3.78;74.14
41102;BME280;26845;50.190;19.178;2022-11-20T14:08:59;98042.87;;;3.08;72.88
41102;BME280;26845;50.190;19.178;2022-11-20T14:11:28;98027.96;;;2.82;73.85
41102;BME280;26845;50.190;19.178;2022-11-20T14:14:03;98037.59;;;2.77;74.36
41102;BME280;26845;50.190;19.178;2022-11-20T14:16:34;98026.64;;;2.72;74.66
41102;BME280;26845;50.190;19.178;2022-11-20T14:27:39;98025.44;;;2.44;75.16
41102;BME280;26845;50.190;19.178;2022-11-20T14:30:16;98029.31;;;2.40;74.77
41102;BME280;26845;50.190;19.178;2022-11-20T14:32:49;98034.83;;;2.33;74.58
41102;BME280;26845;50.190;19.178;2022-11-20T14:35:28;98026.66;;;2.22;74.73
41102;BME280;26845;50.190;19.178;2022-11-20T14:37:57;98027.80;;;2.16;74.74
41102;BME280;26845;50.190;19.178;2022-11-20T14:40:32;98023.70;;;2.09;74.57
41102;BME280;26845;50.190;19.178;2022-11-20T14:43:04;98023.23;;;1.86;74.63
41102;BME280;26845;50.190;19.178;2022-11-20T14:46:08;98028.47;;;1.80;74.84
41102;BME280;26845;50.190;19.178;2022-11-20T14:48:41;98021.88;;;1.78;75.11
41102;BME280;26845;50.190;19.178;2022-11-20T14:51:38;98018.88;;;1.77;75.26
41102;BME280;26845;50.190;19.178;2022-11-20T14:54:18;98018.09;;;1.64;75.66
41102;BME280;26845;50.190;19.178;2022-11-20T14:56:56;98018.09;;;1.64;75.66
41102;BME280;26845;50.190;19.178;2022-11-20T14:59:32;98019.20;;;1.61;75.26